sensor_id;sensor_type;location;lat;lon;timestamp;temperature;humidity
4548;DHT22;2286;51.570;7.090;2023-07-16T00:00:12;19.90;99.90
4548;DHT22;2286;51.570;7.090;2023-07-16T00:02:40;19.90;99.90
4548;DHT22;2286;51.570;7.090;2023-07-16T00:05:08;19.90;99.90
4548;DHT22;2286;51.570;7.090;2023-07-16T00:07:35;19.80;99.90
4548;DHT22;2286;51.570;7.090;2023-07-16T00:10:02;19.90;99.90
4548;DHT22;2286;51.570;7.090;2023-07-16T00:12:30;19.90;99.90
4548;DHT22;2286;51.570;7.090;2023-07-16T00:14:57;19.90;99.90
4548;DHT22;2286;51.570;7.090;2023-07-16T00:17:24;19.80;1.00
4548;DHT22;2286;51.570;7.090;2023-07-16T00:19:50;19.80;1.00
4548;DHT22;2286;51.570;7.090;2023-07-16T00:22:17;19.80;1.00
4548;DHT22;2286;51.570;7.090;2023-07-16T00:24:44;19.70;1.00
4548;DHT22;2286;51.570;7.090;2023-07-16T00:27:11;19.60;99.30
4548;DHT22;2286;51.570;7.090;2023-07-16T00:29:39;19.50;99.90
4548;DHT22;2286;51.570;7.090;2023-07-16T00:32:06;19.50;99.90
4548;DHT22;2286;51.570;7.090;2023-07-16T00:34:33;19.40;1.00
4548;DHT22;2286;51.570;7.090;2023-07-16T00:36:59;19.30;1.00
4548;DHT22;2286;51.570;7.090;2023-07-16T00:39:27;19.20;99.90
4548;DHT22;2286;51.570;7.090;2023-07-16T00:41:54;19.20;99.90
4548;DHT22;2286;51.570;7.090;2023-07-16T00:44:21;19.20;99.90
4548;DHT22;2286;51.570;7.090;2023-07-16T00:46:49;19.20;1.00
4548;DHT22;2286;51.570;7.090;2023-07-16T00:49:17;19.10;1.00
4548;DHT22;2286;51.570;7.090;2023-07-16T00:51:44;19.10;1.00
4548;DHT22;2286;51.570;7.090;2023-07-16T00:54:11;19.10;1.00
4548;DHT22;2286;51.570;7.090;2023-07-16T00:56:38;19.10;99.90
4548;DHT22;2286;51.570;7.090;2023-07-16T00:59:05;19.00;99.90
4548;DHT22;2286;51.570;7.090;2023-07-16T01:01:32;18.90;1.00
4548;DHT22;2286;51.570;7.090;2023-07-16T01:04:00;18.80;99.90
4548;DHT22;2286;51.570;7.090;2023-07-16T01:06:31;18.80;99.90
4548;DHT22;2286;51.570;7.090;2023-07-16T01:09:03;18.70;1.00
4548;DHT22;2286;51.570;7.090;2023-07-16T01:11:32;18.70;99.90
4548;DHT22;2286;51.570;7.090;2023-07-16T01:14:01;18.60;1.00
4548;DHT22;2286;51.570;7.090;2023-07-16T01:16:29;18.60;99.90
4548;DHT22;2286;51.570;7.090;2023-07-16T01:18:56;18.50;1.00
4548;DHT22;2286;51.570;7.090;2023-07-16T01:21:24;18.50;1.00
4548;DHT22;2286;51.570;7.090;2023-07-16T01:24:14;18.40;21.10
4548;DHT22;2286;51.570;7.090;2023-07-16T01:27:04;18.30;99.90
4548;DHT22;2286;51.570;7.090;2023-07-16T01:29:39;18.40;1.00
4548;DHT22;2286;51.570;7.090;2023-07-16T01:32:09;18.40;1.00
4548;DHT22;2286;51.570;7.090;2023-07-16T01:34:38;18.40;1.00
4548;DHT22;2286;51.570;7.090;2023-07-16T01:37:06;18.40;99.90
4548;DHT22;2286;51.570;7.090;2023-07-16T01:39:33;18.30;99.90
4548;DHT22;2286;51.570;7.090;2023-07-16T01:42:00;18.20;1.00
4548;DHT22;2286;51.570;7.090;2023-07-16T01:44:27;18.10;99.90
4548;DHT22;2286;51.570;7.090;2023-07-16T01:47:05;18.00;1.00
4548;DHT22;2286;51.570;7.090;2023-07-16T01:49:32;18.00;1.00
4548;DHT22;2286;51.570;7.090;2023-07-16T01:52:00;17.90;1.40
4548;DHT22;2286;51.570;7.090;2023-07-16T01:54:27;17.80;99.90
4548;DHT22;2286;51.570;7.090;2023-07-16T01:56:54;17.80;99.90
4548;DHT22;2286;51.570;7.090;2023-07-16T01:59:21;17.90;59.60
4548;DHT22;2286;51.570;7.090;2023-07-16T02:01:47;17.90;1.00
4548;DHT22;2286;51.570;7.090;2023-07-16T02:04:15;17.90;1.00
4548;DHT22;2286;51.570;7.090;2023-07-16T02:06:42;17.90;99.90
4548;DHT22;2286;51.570;7.090;2023-07-16T02:09:10;17.80;1.00
4548;DHT22;2286;51.570;7.090;2023-07-16T02:11:36;17.80;1.00
4548;DHT22;2286;51.570;7.090;2023-07-16T02:14:03;17.80;1.00
4548;DHT22;2286;51.570;7.090;2023-07-16T02:16:30;17.80;1.00
4548;DHT22;2286;51.570;7.090;2023-07-16T02:18:57;17.80;49.70
4548;DHT22;2286;51.570;7.090;2023-07-16T02:21:25;17.70;99.90
4548;DHT22;2286;51.570;7.090;2023-07-16T02:23:52;17.80;99.90
4548;DHT22;2286;51.570;7.090;2023-07-16T02:26:19;17.80;99.90
4548;DHT22;2286;51.570;7.090;2023-07-16T02:28:46;17.80;99.90
4548;DHT22;2286;51.570;7.090;2023-07-16T02:31:13;17.80;99.90
4548;DHT22;2286;51.570;7.090;2023-07-16T02:33:40;17.70;1.00
4548;DHT22;2286;51.570;7.090;2023-07-16T02:36:07;17.70;99.90
4548;DHT22;2286;51.570;7.090;2023-07-16T02:38:36;17.70;99.90
4548;DHT22;2286;51.570;7.090;2023-07-16T02:41:03;17.60;99.90
4548;DHT22;2286;51.570;7.090;2023-07-16T02:43:30;17.60;99.90
4548;DHT22;2286;51.570;7.090;2023-07-16T02:45:57;17.60;99.90
4548;DHT22;2286;51.570;7.090;2023-07-16T02:48:24;17.60;1.00
4548;DHT22;2286;51.570;7.090;2023-07-16T02:50:51;17.60;1.00
4548;DHT22;2286;51.570;7.090;2023-07-16T02:53:18;17.70;99.90
4548;DHT22;2286;51.570;7.090;2023-07-16T02:55:46;17.80;1.00
4548;DHT22;2286;51.570;7.090;2023-07-16T02:58:13;17.90;99.90
4548;DHT22;2286;51.570;7.090;2023-07-16T03:00:41;17.80;99.90
4548;DHT22;2286;51.570;7.090;2023-07-16T03:03:08;17.80;99.90
4548;DHT22;2286;51.570;7.090;2023-07-16T03:05:35;17.80;99.90
4548;DHT22;2286;51.570;7.090;2023-07-16T03:08:02;17.80;99.90
4548;DHT22;2286;51.570;7.090;2023-07-16T03:10:29;17.90;22.80
4548;DHT22;2286;51.570;7.090;2023-07-16T03:12:57;17.90;1.00
4548;DHT22;2286;51.570;7.090;2023-07-16T03:15:24;18.00;1.00
4548;DHT22;2286;51.570;7.090;2023-07-16T03:17:51;18.10;99.90
4548;DHT22;2286;51.570;7.090;2023-07-16T03:20:18;18.10;99.90
4548;DHT22;2286;51.570;7.090;2023-07-16T03:22:45;18.10;99.90
4548;DHT22;2286;51.570;7.090;2023-07-16T03:25:12;18.10;99.90
4548;DHT22;2286;51.570;7.090;2023-07-16T03:27:39;18.10;23.50
4548;DHT22;2286;51.570;7.090;2023-07-16T03:30:09;18.00;1.00
4548;DHT22;2286;51.570;7.090;2023-07-16T03:32:36;18.00;1.00
4548;DHT22;2286;51.570;7.090;2023-07-16T03:35:03;17.90;25.10
4548;DHT22;2286;51.570;7.090;2023-07-16T03:37:30;17.90;1.00
4548;DHT22;2286;51.570;7.090;2023-07-16T03:40:11;17.80;22.80
4548;DHT22;2286;51.570;7.090;2023-07-16T03:42:38;17.80;1.00
4548;DHT22;2286;51.570;7.090;2023-07-16T03:45:06;17.70;99.90
4548;DHT22;2286;51.570;7.090;2023-07-16T03:47:34;17.70;15.40
4548;DHT22;2286;51.570;7.090;2023-07-16T03:50:02;17.70;99.90
4548;DHT22;2286;51.570;7.090;2023-07-16T03:52:29;17.70;1.00
4548;DHT22;2286;51.570;7.090;2023-07-16T03:54:56;17.70;1.00
4548;DHT22;2286;51.570;7.090;2023-07-16T03:57:23;17.70;99.90
4548;DHT22;2286;51.570;7.090;2023-07-16T03:59:50;17.70;99.90
4548;DHT22;2286;51.570;7.090;2023-07-16T04:02:16;17.70;1.00
4548;DHT22;2286;51.570;7.090;2023-07-16T04:04:45;17.70;24.30
4548;DHT22;2286;51.570;7.090;2023-07-16T04:07:12;17.70;1.00
4548;DHT22;2286;51.570;7.090;2023-07-16T04:09:39;17.70;1.00
4548;DHT22;2286;51.570;7.090;2023-07-16T04:12:07;17.70;99.90
4548;DHT22;2286;51.570;7.090;2023-07-16T04:14:34;17.60;36.20
4548;DHT22;2286;51.570;7.090;2023-07-16T04:17:01;17.60;1.00
4548;DHT22;2286;51.570;7.090;2023-07-16T04:19:28;17.70;99.90
4548;DHT22;2286;51.570;7.090;2023-07-16T04:21:56;17.70;99.90
4548;DHT22;2286;51.570;7.090;2023-07-16T04:24:23;17.70;99.90
4548;DHT22;2286;51.570;7.090;2023-07-16T04:26:52;17.80;99.90
4548;DHT22;2286;51.570;7.090;2023-07-16T04:29:19;18.20;1.00
4548;DHT22;2286;51.570;7.090;2023-07-16T04:31:46;18.20;1.00
4548;DHT22;2286;51.570;7.090;2023-07-16T04:34:13;18.00;1.00
4548;DHT22;2286;51.570;7.090;2023-07-16T04:36:42;17.90;1.00
4548;DHT22;2286;51.570;7.090;2023-07-16T04:39:11;17.80;61.30
4548;DHT22;2286;51.570;7.090;2023-07-16T04:41:38;17.80;13.20
4548;DHT22;2286;51.570;7.090;2023-07-16T04:44:05;17.80;49.20
4548;DHT22;2286;51.570;7.090;2023-07-16T04:46:32;17.80;1.00
4548;DHT22;2286;51.570;7.090;2023-07-16T04:48:59;17.80;1.00
4548;DHT22;2286;51.570;7.090;2023-07-16T04:51:26;17.90;99.90
4548;DHT22;2286;51.570;7.090;2023-07-16T04:53:53;18.00;99.90
4548;DHT22;2286;51.570;7.090;2023-07-16T04:56:21;18.00;99.90
4548;DHT22;2286;51.570;7.090;2023-07-16T04:58:49;17.90;99.90
4548;DHT22;2286;51.570;7.090;2023-07-16T05:01:16;17.90;99.90
4548;DHT22;2286;51.570;7.090;2023-07-16T05:03:43;17.90;99.90
4548;DHT22;2286;51.570;7.090;2023-07-16T05:06:10;17.90;99.90
4548;DHT22;2286;51.570;7.090;2023-07-16T05:08:36;17.90;99.90
4548;DHT22;2286;51.570;7.090;2023-07-16T05:11:04;17.90;99.90
4548;DHT22;2286;51.570;7.090;2023-07-16T05:13:32;17.90;99.90
4548;DHT22;2286;51.570;7.090;2023-07-16T05:15:59;18.00;99.90
4548;DHT22;2286;51.570;7.090;2023-07-16T05:18:26;18.00;99.90
4548;DHT22;2286;51.570;7.090;2023-07-16T05:20:53;18.00;9.60
4548;DHT22;2286;51.570;7.090;2023-07-16T05:23:20;18.10;1.00
4548;DHT22;2286;51.570;7.090;2023-07-16T05:25:48;18.10;1.00
4548;DHT22;2286;51.570;7.090;2023-07-16T05:28:16;18.10;99.90
4548;DHT22;2286;51.570;7.090;2023-07-16T05:30:45;18.10;99.90
4548;DHT22;2286;51.570;7.090;2023-07-16T05:33:12;18.20;99.90
4548;DHT22;2286;51.570;7.090;2023-07-16T05:35:39;18.20;99.90
4548;DHT22;2286;51.570;7.090;2023-07-16T05:38:06;18.20;1.00
4548;DHT22;2286;51.570;7.090;2023-07-16T05:40:33;18.20;1.00
4548;DHT22;2286;51.570;7.090;2023-07-16T05:43:00;18.30;1.00
4548;DHT22;2286;51.570;7.090;2023-07-16T05:45:27;18.30;1.00
4548;DHT22;2286;51.570;7.090;2023-07-16T05:47:56;18.30;1.00
4548;DHT22;2286;51.570;7.090;2023-07-16T05:50:23;18.30;1.00
4548;DHT22;2286;51.570;7.090;2023-07-16T05:52:50;18.30;1.00
4548;DHT22;2286;51.570;7.090;2023-07-16T05:55:17;18.40;1.00
4548;DHT22;2286;51.570;7.090;2023-07-16T05:57:44;18.40;99.90
4548;DHT22;2286;51.570;7.090;2023-07-16T06:00:12;18.40;99.90
4548;DHT22;2286;51.570;7.090;2023-07-16T06:02:40;18.40;99.90
4548;DHT22;2286;51.570;7.090;2023-07-16T06:05:09;18.40;99.90
4548;DHT22;2286;51.570;7.090;2023-07-16T06:07:36;18.40;90.40
4548;DHT22;2286;51.570;7.090;2023-07-16T06:10:03;18.40;43.80
4548;DHT22;2286;51.570;7.090;2023-07-16T06:12:30;18.40;99.90
4548;DHT22;2286;51.570;7.090;2023-07-16T06:14:57;18.50;99.90
4548;DHT22;2286;51.570;7.090;2023-07-16T06:17:24;18.60;1.00
4548;DHT22;2286;51.570;7.090;2023-07-16T06:19:51;18.50;1.00
4548;DHT22;2286;51.570;7.090;2023-07-16T06:22:19;18.60;8.70
4548;DHT22;2286;51.570;7.090;2023-07-16T06:24:46;18.60;1.00
4548;DHT22;2286;51.570;7.090;2023-07-16T06:27:13;18.60;1.00
4548;DHT22;2286;51.570;7.090;2023-07-16T06:29:40;18.60;1.00
4548;DHT22;2286;51.570;7.090;2023-07-16T06:32:08;18.70;1.00
4548;DHT22;2286;51.570;7.090;2023-07-16T06:34:35;18.70;1.00
4548;DHT22;2286;51.570;7.090;2023-07-16T06:37:02;18.80;1.00
4548;DHT22;2286;51.570;7.090;2023-07-16T06:39:32;18.80;1.00
4548;DHT22;2286;51.570;7.090;2023-07-16T06:41:59;18.80;1.00
4548;DHT22;2286;51.570;7.090;2023-07-16T06:44:26;18.90;1.00
4548;DHT22;2286;51.570;7.090;2023-07-16T06:46:53;18.90;1.00
4548;DHT22;2286;51.570;7.090;2023-07-16T06:49:21;18.90;1.00
4548;DHT22;2286;51.570;7.090;2023-07-16T06:51:48;19.10;1.00
4548;DHT22;2286;51.570;7.090;2023-07-16T06:54:15;19.20;99.90
4548;DHT22;2286;51.570;7.090;2023-07-16T06:56:43;19.40;99.90
4548;DHT22;2286;51.570;7.090;2023-07-16T06:59:10;19.40;99.90
4548;DHT22;2286;51.570;7.090;2023-07-16T07:01:37;19.40;99.90
4548;DHT22;2286;51.570;7.090;2023-07-16T07:04:04;19.30;99.90
4548;DHT22;2286;51.570;7.090;2023-07-16T07:06:31;19.30;99.90
4548;DHT22;2286;51.570;7.090;2023-07-16T07:08:58;19.20;99.90
4548;DHT22;2286;51.570;7.090;2023-07-16T07:11:25;19.20;99.90
4548;DHT22;2286;51.570;7.090;2023-07-16T07:13:54;19.20;99.90
4548;DHT22;2286;51.570;7.090;2023-07-16T07:16:22;19.20;99.90
4548;DHT22;2286;51.570;7.090;2023-07-16T07:18:50;19.30;99.90
4548;DHT22;2286;51.570;7.090;2023-07-16T07:21:17;19.20;99.90
4548;DHT22;2286;51.570;7.090;2023-07-16T07:23:44;19.10;99.90
4548;DHT22;2286;51.570;7.090;2023-07-16T07:26:11;19.10;99.90
4548;DHT22;2286;51.570;7.090;2023-07-16T07:28:38;19.20;99.90
4548;DHT22;2286;51.570;7.090;2023-07-16T07:31:06;19.10;99.90
4548;DHT22;2286;51.570;7.090;2023-07-16T07:33:33;19.30;99.90
4548;DHT22;2286;51.570;7.090;2023-07-16T07:36:00;19.40;99.90
4548;DHT22;2286;51.570;7.090;2023-07-16T07:38:27;19.50;99.90
4548;DHT22;2286;51.570;7.090;2023-07-16T07:40:54;19.40;99.90
4548;DHT22;2286;51.570;7.090;2023-07-16T07:43:21;19.50;99.90
4548;DHT22;2286;51.570;7.090;2023-07-16T07:45:48;19.50;99.90
4548;DHT22;2286;51.570;7.090;2023-07-16T07:48:17;19.60;99.90
4548;DHT22;2286;51.570;7.090;2023-07-16T07:50:46;19.60;99.90
4548;DHT22;2286;51.570;7.090;2023-07-16T07:53:13;19.60;99.90
4548;DHT22;2286;51.570;7.090;2023-07-16T07:55:40;19.70;99.90
4548;DHT22;2286;51.570;7.090;2023-07-16T07:58:07;19.70;99.90
4548;DHT22;2286;51.570;7.090;2023-07-16T08:00:34;19.60;99.90
4548;DHT22;2286;51.570;7.090;2023-07-16T08:03:02;19.50;99.90
4548;DHT22;2286;51.570;7.090;2023-07-16T08:05:30;19.60;99.90
4548;DHT22;2286;51.570;7.090;2023-07-16T08:07:59;19.50;99.90
4548;DHT22;2286;51.570;7.090;2023-07-16T08:10:26;19.50;99.90
4548;DHT22;2286;51.570;7.090;2023-07-16T08:12:53;19.60;99.90
4548;DHT22;2286;51.570;7.090;2023-07-16T08:15:20;19.70;99.90
4548;DHT22;2286;51.570;7.090;2023-07-16T08:17:47;19.90;99.90
4548;DHT22;2286;51.570;7.090;2023-07-16T08:20:14;20.00;99.90
4548;DHT22;2286;51.570;7.090;2023-07-16T08:22:43;20.20;99.90
4548;DHT22;2286;51.570;7.090;2023-07-16T08:25:10;20.30;99.90
4548;DHT22;2286;51.570;7.090;2023-07-16T08:27:37;20.50;99.90
4548;DHT22;2286;51.570;7.090;2023-07-16T08:30:05;20.70;99.90
4548;DHT22;2286;51.570;7.090;2023-07-16T08:32:32;20.80;99.90
4548;DHT22;2286;51.570;7.090;2023-07-16T08:34:59;20.70;99.90
4548;DHT22;2286;51.570;7.090;2023-07-16T08:37:26;20.80;99.90
4548;DHT22;2286;51.570;7.090;2023-07-16T08:39:55;20.90;99.90
4548;DHT22;2286;51.570;7.090;2023-07-16T08:42:22;21.00;99.90
4548;DHT22;2286;51.570;7.090;2023-07-16T08:44:49;20.90;99.90
4548;DHT22;2286;51.570;7.090;2023-07-16T08:47:16;21.10;99.90
4548;DHT22;2286;51.570;7.090;2023-07-16T08:49:51;21.30;99.90
4548;DHT22;2286;51.570;7.090;2023-07-16T08:52:20;21.70;99.90
4548;DHT22;2286;51.570;7.090;2023-07-16T08:54:47;21.80;99.90
4548;DHT22;2286;51.570;7.090;2023-07-16T08:57:16;21.30;99.90
4548;DHT22;2286;51.570;7.090;2023-07-16T08:59:47;20.90;99.90
4548;DHT22;2286;51.570;7.090;2023-07-16T09:02:15;21.00;99.90
4548;DHT22;2286;51.570;7.090;2023-07-16T09:04:43;21.10;99.90
4548;DHT22;2286;51.570;7.090;2023-07-16T09:07:10;21.30;99.90
4548;DHT22;2286;51.570;7.090;2023-07-16T09:09:37;21.40;99.90
4548;DHT22;2286;51.570;7.090;2023-07-16T09:12:05;21.50;99.90
4548;DHT22;2286;51.570;7.090;2023-07-16T09:14:34;21.60;99.90
4548;DHT22;2286;51.570;7.090;2023-07-16T09:17:02;21.60;99.90
4548;DHT22;2286;51.570;7.090;2023-07-16T09:19:32;21.50;99.90
4548;DHT22;2286;51.570;7.090;2023-07-16T09:22:00;21.60;99.90
4548;DHT22;2286;51.570;7.090;2023-07-16T09:24:27;21.80;99.90
4548;DHT22;2286;51.570;7.090;2023-07-16T09:26:55;21.90;99.90
4548;DHT22;2286;51.570;7.090;2023-07-16T09:29:25;22.00;99.90
4548;DHT22;2286;51.570;7.090;2023-07-16T09:31:58;22.10;99.90
4548;DHT22;2286;51.570;7.090;2023-07-16T09:34:27;22.50;99.90
4548;DHT22;2286;51.570;7.090;2023-07-16T09:36:55;22.50;99.90
4548;DHT22;2286;51.570;7.090;2023-07-16T09:39:22;22.50;99.90
4548;DHT22;2286;51.570;7.090;2023-07-16T09:41:51;22.30;99.90
4548;DHT22;2286;51.570;7.090;2023-07-16T09:44:18;22.40;99.90
4548;DHT22;2286;51.570;7.090;2023-07-16T09:46:46;22.70;99.90
4548;DHT22;2286;51.570;7.090;2023-07-16T09:49:16;23.00;99.90
4548;DHT22;2286;51.570;7.090;2023-07-16T09:51:43;23.40;99.90
4548;DHT22;2286;51.570;7.090;2023-07-16T09:54:13;23.40;99.90
4548;DHT22;2286;51.570;7.090;2023-07-16T09:56:43;22.90;99.90
4548;DHT22;2286;51.570;7.090;2023-07-16T09:59:14;22.50;99.90
4548;DHT22;2286;51.570;7.090;2023-07-16T10:01:42;22.50;99.90
4548;DHT22;2286;51.570;7.090;2023-07-16T10:04:15;22.70;99.90
4548;DHT22;2286;51.570;7.090;2023-07-16T10:06:55;22.90;99.90
4548;DHT22;2286;51.570;7.090;2023-07-16T10:09:35;22.90;99.90
4548;DHT22;2286;51.570;7.090;2023-07-16T10:12:18;22.80;99.90
4548;DHT22;2286;51.570;7.090;2023-07-16T10:14:46;22.70;99.90
4548;DHT22;2286;51.570;7.090;2023-07-16T10:17:14;22.80;99.90
4548;DHT22;2286;51.570;7.090;2023-07-16T10:19:56;22.90;99.90
4548;DHT22;2286;51.570;7.090;2023-07-16T10:22:42;22.70;99.90
4548;DHT22;2286;51.570;7.090;2023-07-16T10:25:10;22.80;99.90
4548;DHT22;2286;51.570;7.090;2023-07-16T10:27:37;23.00;99.90
4548;DHT22;2286;51.570;7.090;2023-07-16T10:30:05;23.40;99.90
4548;DHT22;2286;51.570;7.090;2023-07-16T10:32:33;23.00;99.90
4548;DHT22;2286;51.570;7.090;2023-07-16T10:35:04;23.10;99.90
4548;DHT22;2286;51.570;7.090;2023-07-16T10:37:32;23.00;99.90
4548;DHT22;2286;51.570;7.090;2023-07-16T10:40:00;22.90;99.90
4548;DHT22;2286;51.570;7.090;2023-07-16T10:42:28;22.70;99.90
4548;DHT22;2286;51.570;7.090;2023-07-16T10:44:58;22.80;99.90
4548;DHT22;2286;51.570;7.090;2023-07-16T10:47:30;22.80;99.90
4548;DHT22;2286;51.570;7.090;2023-07-16T10:49:58;23.20;99.90
4548;DHT22;2286;51.570;7.090;2023-07-16T10:52:27;23.60;99.90
4548;DHT22;2286;51.570;7.090;2023-07-16T10:54:54;23.30;99.90
4548;DHT22;2286;51.570;7.090;2023-07-16T10:57:21;23.10;99.90
4548;DHT22;2286;51.570;7.090;2023-07-16T10:59:50;22.90;99.90
4548;DHT22;2286;51.570;7.090;2023-07-16T11:02:18;23.20;99.90
4548;DHT22;2286;51.570;7.090;2023-07-16T11:04:46;23.40;99.90
4548;DHT22;2286;51.570;7.090;2023-07-16T11:07:14;23.60;99.90
4548;DHT22;2286;51.570;7.090;2023-07-16T11:09:44;23.30;99.90
4548;DHT22;2286;51.570;7.090;2023-07-16T11:12:12;23.30;92.60
4548;DHT22;2286;51.570;7.090;2023-07-16T11:14:45;23.50;99.90
4548;DHT22;2286;51.570;7.090;2023-07-16T11:17:13;23.70;99.90
4548;DHT22;2286;51.570;7.090;2023-07-16T11:19:41;23.60;99.90
4548;DHT22;2286;51.570;7.090;2023-07-16T11:22:10;23.60;99.90
4548;DHT22;2286;51.570;7.090;2023-07-16T11:24:38;23.70;99.90
4548;DHT22;2286;51.570;7.090;2023-07-16T11:27:13;23.70;99.90
4548;DHT22;2286;51.570;7.090;2023-07-16T11:29:40;23.50;99.90
4548;DHT22;2286;51.570;7.090;2023-07-16T11:32:11;23.40;99.90
4548;DHT22;2286;51.570;7.090;2023-07-16T11:34:50;23.40;99.90
4548;DHT22;2286;51.570;7.090;2023-07-16T11:37:18;23.30;99.90
4548;DHT22;2286;51.570;7.090;2023-07-16T11:39:46;23.40;99.90
4548;DHT22;2286;51.570;7.090;2023-07-16T11:42:17;23.40;99.90
4548;DHT22;2286;51.570;7.090;2023-07-16T11:44:48;23.50;99.90
4548;DHT22;2286;51.570;7.090;2023-07-16T11:47:16;23.30;99.90
4548;DHT22;2286;51.570;7.090;2023-07-16T11:49:43;23.10;99.60
4548;DHT22;2286;51.570;7.090;2023-07-16T11:52:10;23.10;99.90
4548;DHT22;2286;51.570;7.090;2023-07-16T11:54:37;23.10;99.70
4548;DHT22;2286;51.570;7.090;2023-07-16T11:57:04;23.20;99.90
4548;DHT22;2286;51.570;7.090;2023-07-16T11:59:33;23.00;98.50
4548;DHT22;2286;51.570;7.090;2023-07-16T12:02:00;22.70;97.50
4548;DHT22;2286;51.570;7.090;2023-07-16T12:04:27;22.70;97.80
4548;DHT22;2286;51.570;7.090;2023-07-16T12:06:54;22.80;98.40
4548;DHT22;2286;51.570;7.090;2023-07-16T12:09:21;23.00;98.90
4548;DHT22;2286;51.570;7.090;2023-07-16T12:11:48;23.20;99.90
4548;DHT22;2286;51.570;7.090;2023-07-16T12:14:15;23.50;99.90
4548;DHT22;2286;51.570;7.090;2023-07-16T12:16:43;23.60;99.90
4548;DHT22;2286;51.570;7.090;2023-07-16T12:19:10;23.60;99.20
4548;DHT22;2286;51.570;7.090;2023-07-16T12:21:38;23.40;98.70
4548;DHT22;2286;51.570;7.090;2023-07-16T12:24:05;23.20;97.90
4548;DHT22;2286;51.570;7.090;2023-07-16T12:26:32;22.90;97.30
4548;DHT22;2286;51.570;7.090;2023-07-16T12:29:00;22.90;97.10
4548;DHT22;2286;51.570;7.090;2023-07-16T12:31:29;23.00;97.70
4548;DHT22;2286;51.570;7.090;2023-07-16T12:33:58;23.30;98.40
4548;DHT22;2286;51.570;7.090;2023-07-16T12:36:25;23.40;98.20
4548;DHT22;2286;51.570;7.090;2023-07-16T12:38:52;23.20;98.00
4548;DHT22;2286;51.570;7.090;2023-07-16T12:41:19;23.10;97.90
4548;DHT22;2286;51.570;7.090;2023-07-16T12:43:47;23.00;97.60
4548;DHT22;2286;51.570;7.090;2023-07-16T12:46:14;23.10;97.50
4548;DHT22;2286;51.570;7.090;2023-07-16T12:48:41;23.20;97.80
4548;DHT22;2286;51.570;7.090;2023-07-16T12:51:10;23.60;98.80
4548;DHT22;2286;51.570;7.090;2023-07-16T12:53:37;23.80;99.00
4548;DHT22;2286;51.570;7.090;2023-07-16T12:56:04;23.90;99.00
4548;DHT22;2286;51.570;7.090;2023-07-16T12:58:31;24.00;98.90
4548;DHT22;2286;51.570;7.090;2023-07-16T13:00:58;23.60;97.80
4548;DHT22;2286;51.570;7.090;2023-07-16T13:03:25;23.50;97.70
4548;DHT22;2286;51.570;7.090;2023-07-16T13:05:52;23.50;97.90
4548;DHT22;2286;51.570;7.090;2023-07-16T13:08:20;23.70;98.70
4548;DHT22;2286;51.570;7.090;2023-07-16T13:10:47;23.70;98.20
4548;DHT22;2286;51.570;7.090;2023-07-16T13:13:15;23.90;98.40
4548;DHT22;2286;51.570;7.090;2023-07-16T13:15:42;23.80;97.20
4548;DHT22;2286;51.570;7.090;2023-07-16T13:18:10;24.40;99.20
4548;DHT22;2286;51.570;7.090;2023-07-16T13:20:37;25.00;99.90
4548;DHT22;2286;51.570;7.090;2023-07-16T13:23:04;25.20;99.90
4548;DHT22;2286;51.570;7.090;2023-07-16T13:25:35;25.30;99.70
4548;DHT22;2286;51.570;7.090;2023-07-16T13:28:04;25.10;99.10
4548;DHT22;2286;51.570;7.090;2023-07-16T13:30:31;25.50;99.90
4548;DHT22;2286;51.570;7.090;2023-07-16T13:32:58;25.50;99.80
4548;DHT22;2286;51.570;7.090;2023-07-16T13:35:27;26.80;99.90
4548;DHT22;2286;51.570;7.090;2023-07-16T13:37:54;26.90;99.90
4548;DHT22;2286;51.570;7.090;2023-07-16T13:40:21;25.90;97.50
4548;DHT22;2286;51.570;7.090;2023-07-16T13:42:49;24.90;99.90
4548;DHT22;2286;51.570;7.090;2023-07-16T13:45:16;25.10;97.10
4548;DHT22;2286;51.570;7.090;2023-07-16T13:47:43;24.60;95.20
4548;DHT22;2286;51.570;7.090;2023-07-16T13:50:10;25.80;99.00
4548;DHT22;2286;51.570;7.090;2023-07-16T13:52:37;28.00;99.90
4548;DHT22;2286;51.570;7.090;2023-07-16T13:55:05;28.80;99.90
4548;DHT22;2286;51.570;7.090;2023-07-16T13:57:32;29.30;99.90
4548;DHT22;2286;51.570;7.090;2023-07-16T14:00:01;28.70;98.90
4548;DHT22;2286;51.570;7.090;2023-07-16T14:02:28;28.40;98.40
4548;DHT22;2286;51.570;7.090;2023-07-16T14:04:55;29.60;99.90
4548;DHT22;2286;51.570;7.090;2023-07-16T14:07:22;29.70;99.90
4548;DHT22;2286;51.570;7.090;2023-07-16T14:09:49;28.80;97.10
4548;DHT22;2286;51.570;7.090;2023-07-16T14:12:16;29.30;98.60
4548;DHT22;2286;51.570;7.090;2023-07-16T14:14:43;29.30;97.40
4548;DHT22;2286;51.570;7.090;2023-07-16T14:17:12;28.50;94.80
4548;DHT22;2286;51.570;7.090;2023-07-16T14:19:39;28.50;94.70
4548;DHT22;2286;51.570;7.090;2023-07-16T14:22:06;28.40;94.50
4548;DHT22;2286;51.570;7.090;2023-07-16T14:24:37;29.00;95.60
4548;DHT22;2286;51.570;7.090;2023-07-16T14:27:06;29.80;97.20
4548;DHT22;2286;51.570;7.090;2023-07-16T14:29:33;31.50;99.90
4548;DHT22;2286;51.570;7.090;2023-07-16T14:32:00;32.10;99.90
4548;DHT22;2286;51.570;7.090;2023-07-16T14:34:29;32.40;99.90
4548;DHT22;2286;51.570;7.090;2023-07-16T14:36:56;33.60;99.90
4548;DHT22;2286;51.570;7.090;2023-07-16T14:39:23;34.00;99.90
4548;DHT22;2286;51.570;7.090;2023-07-16T14:41:50;34.40;99.90
4548;DHT22;2286;51.570;7.090;2023-07-16T14:44:17;34.00;99.90
4548;DHT22;2286;51.570;7.090;2023-07-16T14:46:44;34.20;99.90
4548;DHT22;2286;51.570;7.090;2023-07-16T14:49:11;33.80;99.40
4548;DHT22;2286;51.570;7.090;2023-07-16T14:51:40;32.30;94.40
4548;DHT22;2286;51.570;7.090;2023-07-16T14:54:07;32.10;92.80
4548;DHT22;2286;51.570;7.090;2023-07-16T14:56:35;32.50;94.50
4548;DHT22;2286;51.570;7.090;2023-07-16T14:59:02;33.30;95.60
4548;DHT22;2286;51.570;7.090;2023-07-16T15:01:30;33.10;93.40
4548;DHT22;2286;51.570;7.090;2023-07-16T15:03:57;31.90;90.20
4548;DHT22;2286;51.570;7.090;2023-07-16T15:06:24;31.70;89.70
4548;DHT22;2286;51.570;7.090;2023-07-16T15:08:53;31.00;83.10
4548;DHT22;2286;51.570;7.090;2023-07-16T15:11:20;30.90;83.60
4548;DHT22;2286;51.570;7.090;2023-07-16T15:13:47;30.30;79.30
4548;DHT22;2286;51.570;7.090;2023-07-16T15:16:14;30.00;77.50
4548;DHT22;2286;51.570;7.090;2023-07-16T15:18:41;29.60;76.10
4548;DHT22;2286;51.570;7.090;2023-07-16T15:21:10;29.40;74.20
4548;DHT22;2286;51.570;7.090;2023-07-16T15:23:37;29.20;74.40
4548;DHT22;2286;51.570;7.090;2023-07-16T15:26:06;28.90;71.00
4548;DHT22;2286;51.570;7.090;2023-07-16T15:28:36;28.60;68.90
4548;DHT22;2286;51.570;7.090;2023-07-16T15:31:04;28.10;66.60
4548;DHT22;2286;51.570;7.090;2023-07-16T15:33:31;27.70;64.70
4548;DHT22;2286;51.570;7.090;2023-07-16T15:35:59;27.20;61.50
4548;DHT22;2286;51.570;7.090;2023-07-16T15:38:26;26.80;62.50
4548;DHT22;2286;51.570;7.090;2023-07-16T15:40:53;27.00;62.80
4548;DHT22;2286;51.570;7.090;2023-07-16T15:43:22;26.70;59.20
4548;DHT22;2286;51.570;7.090;2023-07-16T15:45:49;26.20;58.00
4548;DHT22;2286;51.570;7.090;2023-07-16T15:48:16;26.20;58.80
4548;DHT22;2286;51.570;7.090;2023-07-16T15:50:43;26.40;60.00
4548;DHT22;2286;51.570;7.090;2023-07-16T15:53:10;26.50;59.40
4548;DHT22;2286;51.570;7.090;2023-07-16T15:55:39;26.40;59.30
4548;DHT22;2286;51.570;7.090;2023-07-16T15:58:06;26.90;62.90
4548;DHT22;2286;51.570;7.090;2023-07-16T16:00:35;28.60;69.80
4548;DHT22;2286;51.570;7.090;2023-07-16T16:03:02;30.00;76.40
4548;DHT22;2286;51.570;7.090;2023-07-16T16:05:30;30.00;77.30
4548;DHT22;2286;51.570;7.090;2023-07-16T16:08:11;29.30;71.70